createdAt,value
2022-10-07T00:07:07.833Z,1027.7
2022-10-07T00:21:07.740Z,1027.63
2022-10-07T00:35:07.776Z,1027.63
2022-10-07T00:49:07.755Z,1027.35
2022-10-07T01:03:07.831Z,1027.25
2022-10-07T01:17:07.922Z,1027.04
2022-10-07T01:31:07.923Z,1026.9099999999999
2022-10-07T01:45:07.867Z,1026.8600000000001
2022-10-07T01:59:07.896Z,1026.76
2022-10-07T02:13:07.948Z,1026.69
2022-10-07T02:27:07.952Z,1026.71
2022-10-07T02:41:07.936Z,1026.5700000000002
2022-10-07T02:55:08.134Z,1026.53
2022-10-07T03:09:08.403Z,1026.33
2022-10-07T03:23:08.437Z,1026.17
2022-10-07T03:37:08.424Z,1026.08
2022-10-07T03:51:08.432Z,1026.1399999999999
2022-10-07T04:05:08.432Z,1026.1
2022-10-07T04:19:08.446Z,1026.01
2022-10-07T04:33:08.491Z,1026
2022-10-07T04:47:08.604Z,1026.12
2022-10-07T05:01:08.573Z,1026.03
2022-10-07T05:16:08.556Z,1026.05
2022-10-07T05:31:08.663Z,1026.12
2022-10-07T05:47:08.576Z,1026.12
2022-10-07T06:02:08.607Z,1026.0700000000002
2022-10-07T06:17:08.620Z,1026.1
2022-10-07T06:32:08.605Z,1026.0900000000001
2022-10-07T06:47:11.573Z,1026.04
2022-10-07T07:02:08.633Z,1026.0700000000002
2022-10-07T07:17:08.684Z,1026.01
2022-10-07T07:32:08.652Z,1026.02
2022-10-07T07:47:08.671Z,1026.15
2022-10-07T08:02:08.784Z,1026.1799999999998
2022-10-07T08:17:08.716Z,1026.05
2022-10-07T08:33:08.751Z,1025.9299999999998
2022-10-07T08:48:08.964Z,1025.8400000000001
2022-10-07T09:03:08.985Z,1025.76
2022-10-07T09:18:09.008Z,1025.49
2022-10-07T09:33:09.012Z,1025.42
2022-10-07T09:48:09.005Z,1025.3400000000001
2022-10-07T10:03:09.142Z,1025.2
2022-10-07T10:18:09.176Z,1025
2022-10-07T10:33:09.119Z,1024.88
2022-10-07T11:00:11.914Z,1024.53
2022-10-07T11:15:11.952Z,1024.29
2022-10-07T11:30:11.937Z,1024.08
2022-10-07T11:45:11.937Z,1023.89
2022-10-07T12:00:12.060Z,1023.62
2022-10-07T12:16:12.043Z,1023.31
2022-10-07T12:31:12.263Z,1023.08
2022-10-07T12:46:12.518Z,1022.92
2022-10-07T13:01:12.663Z,1022.68
2022-10-07T13:16:12.598Z,1022.57
2022-10-07T13:31:12.571Z,1022.4
2022-10-07T13:46:12.741Z,1022.29
2022-10-07T14:01:12.895Z,1022.14
2022-10-07T14:16:12.914Z,1021.97
2022-10-07T14:31:12.875Z,1021.73
2022-10-07T14:46:12.841Z,1021.63
2022-10-07T15:15:31.640Z,1021.48
2022-10-07T15:30:34.433Z,1021.41
2022-10-07T15:45:31.836Z,1021.46
2022-10-07T16:00:31.827Z,1021.44
2022-10-07T16:15:32.016Z,1021.55
2022-10-07T16:30:31.848Z,1021.5
2022-10-07T16:45:32.229Z,1021.46
2022-10-07T17:00:32.264Z,1021.53
2022-10-07T17:15:32.259Z,1021.51
2022-10-07T17:29:32.394Z,1021.52
2022-10-07T17:43:32.333Z,1021.55
2022-10-07T17:57:32.387Z,1021.52
2022-10-07T18:11:32.429Z,1021.48
2022-10-07T18:25:32.445Z,1021.46
2022-10-07T18:39:32.434Z,1021.4
2022-10-07T18:53:32.446Z,1021.46
2022-10-07T19:07:32.493Z,1021.32
2022-10-07T19:21:32.491Z,1021.39
2022-10-07T19:35:32.503Z,1021.43
2022-10-07T19:49:32.487Z,1021.42
2022-10-07T20:03:32.608Z,1021.44
2022-10-07T20:17:32.641Z,1021.41
2022-10-07T20:31:32.671Z,1021.45
2022-10-07T20:45:32.724Z,1021.49
2022-10-07T20:59:32.692Z,1021.51
2022-10-07T21:13:32.688Z,1021.4
2022-10-07T21:27:32.720Z,1021.28
2022-10-07T21:41:32.741Z,1021.21
2022-10-07T21:55:32.709Z,1021.17
2022-10-07T22:09:32.723Z,1021.09
2022-10-07T22:23:32.762Z,1020.99
2022-10-07T22:37:32.743Z,1020.82
2022-10-07T22:51:32.773Z,1020.67
2022-10-07T23:05:32.769Z,1020.37
2022-10-07T23:19:32.760Z,1020.38
2022-10-07T23:33:32.838Z,1020.37
2022-10-07T23:47:33.124Z,1020.15
